Kmdw taf. METAR KMDW 202353Z 11005KT 10SM CLR 19/04 A3013 RMK AO2 SLP200 ...

FAA Part 107 Drone Pilot Test. The FAA gives you 1

KMDW - Chicago/Midway Intl, IL, US Issued at 1120 UTC 11 Oct 2023 Updated at 1129 UTC 11 Oct 2023 Potential Impact None Slight Moderate High NOTE: LAMP data beyond the time of the TAF data is denoted as LAMP in Type and colored magenta. Raw TAF KMDW 111120Z 1112/1218 23005KT P6SM SCT100 FM112200 13006KT 6SM -SHRA SCT030 BKN050Impacts TAF Board. TAF Home. Plot. Data. Board. Info. For situational awareness. Not to be used for flight planning purposes. IDs: KMDW - Chicago/Midway Intl, IL, US. Issued at 0525 UTC 01 Jul 2023. Updated at 0749 UTC 01 Jul 2023. Potential Impact: None: Slight: Moderate: High: Time 0653Z 01/08Z 01/09Z 01/10Z 01/11Z 01/12ZMETAR TAF : Current weather observation and Forecast, Chicago Midway International Airport Illinois United States ... TAF: KMDW 111120Z 1112/1218 23005KT P6SM SCT100 ...Oct 12, 2023 · TAF for: KSDF (Louisville Intl, KY, US) issued at 1720 UTC 12 Oct 2023: Text: KSDF 121720Z 1218/1324 VRB04KT P6SM SKC : Forecast period: 1800 UTC 12 October 2023 to 0000 UTC 13 October 2023: Forecast type: FROM: standard forecast or significant change: Winds: variable direction winds at 5 MPH (4 knots; 2.1 m/s) Visibility: 6 or more sm (10+ km ... Study with Quizlet and memorize flashcards containing terms like What is meant by the term 'dewpoint'?, When the phrase "light and variable" is used in reference to a winds-aloft forecast, the coded group and wind-speed is, What is the valid period for the TAF for KMEM? KMEM 1217207Z 1218/1318 20012KT 5SM HZ BKN030 FM122200 33015G20KT P6SM BKN015 OVC025 PROB40 1222/1302 3SM SHRA FM130200 ... Data at: 1431 UTC 04 Oct 2023. KMDW 041353Z 20008KT 10SM FEW070 FEW090 SCT200 BKN250 23/14 A3000 RMK AO2 SLP150 T02280144. KMDW 041140Z 0412/0518 21013G22KT P6SM BKN100. FM050000 22008KT P6SM VCSH SCT035 BKN080. FM050700 23006KT 6SM -RA SCT025 OVC040.FM100000 29007KT P6SM BKN230. Page loaded: 15:40 UTC | 08:40 AM Pacific | 09:40 AM Mountain | 10:40 AM Central | 11:40 AM Eastern. Aviation Weather Center Homepage …Wind 7 mph from the South/Southeast. Visibility: 6 miles. Clear sky. TAF: KMDW 010520Z 0106/0212 15006KT P6SM SKC. Weather observations and forecasts of more than 4000 …KMDW - Chicago/Midway Intl, IL, US Issued at 0902 UTC 20 Sep 2023 Updated at 1030 UTC 20 Sep 2023 Potential Impact None Slight Moderate High NOTE: LAMP data beyond the time of the TAF data is denoted as LAMP in Type and colored magenta. Raw TAF KMDW 200902Z 2009/2112 20009KT P6SM SCT060 BKN100 FM201200 20009KT P6SM VCTS BKN060CBNo guarantee of current accuracy is given. Airport information for Chicago Midway Intl (KMDW) in , including runways, map, navaids, weather (METAR/TAF) and ATC …IDs: Format: Raw Decoded Include TAF Data at: 0708 UTC 09 Oct 2023 KMDW 090653Z 26004KT 10SM FEW070 07/03 A2983 RMK AO2 SLP106 T00670028 KMDW 090520Z 0906/1012 30006KT P6SM SCT080 FM091600 30012G18KT P6SM FEW050 FEW250 FM092300 28006KT P6SM FEW250TAF Home. Plot. Data. Board. Info. For situational awareness. Not to be used for flight planning purposes. IDs: KMDW - Chicago/Midway Intl, IL, US. Issued at 0901 UTC ... Oct 11, 2023 · AVIATION WEATHER CENTER. This site is changing on October 16, 2023. Preview the new site at Beta.AviationWeather.gov. SCN23-79: Upgrade of Aviation Weather Center Website. TAFs. METAR KMLI 152055Z 25006KT 1/2SM SN FZFG BKN008 OVC014 M05/M06 A2957 RMK A02 PRESFR SLP023 P0000 60000 T10501056 53017 · METAR KMDW 152045Z 23009KT 7/8SM -SN ...METAR Home. Plot. Data. Board. Info. IDs: Format: Raw Decoded Include TAF. Data at: 0542 UTC 09 Oct 2023. KMDW 090453Z 32004KT 10SM CLR 08/03 A2985 RMK AO2 SLP110 T00830028. KMDW 090353Z 32003KT 10SM FEW070 FEW160 09/03 A2986 RMK AO2 SLP114 T00890033. NOTE: LAMP data beyond the time of the TAF data is denoted as LAMP in Type and colored magenta. Raw TAF KMDW 190540Z 1906/2012 16005KT P6SM SCT100 BKN250 FM191100 19008KT 6SM -SHRA SCT050 OVC080 TEMPO 1914/1918 4SM RA BR SCT030 BKN050 FM191900 15012G20KT P6SM SCT070 OVC100 FM200000 14008KT P6SM BKN080 FM200800 20008KT P6SM SCT080 BKN250 METAR Board Radar Display Forecast Discussion METAR KLAX 121852Z 25004KT 6SM BR SCT007 SCT250 16/15 A2991. SPECI KMDW 121856Z 32005KT 1 ½SM RA OVC007 17/16 A2980 RMKRAB35. SPECI KJFK 121853Z 18004KT 1/2SM FG R04/2200 OVC005 20/18 A3006. What are the current conditions depicted for Chicago Midway Airport (KMDW) Definition. data at: 2236 utc 18 dec 2022. kmdw 182153z 26012g20kt 10sm few020 m07/m12 a3020 rmk ao2 slp246 t10671122 $ kmdw 182053z 25013kt 10sm few022 m06/m12 a3018 rmk ao2 slp236 t10611117 53013 $ kmdw 181953z 25013kt 10sm few022 m07/m12 a3015 rmk ao2 slp228 t10671122 $ kmdw 181853z 25015g20kt 10sm few020 few095 m07/m12 a3014 …Refer to Figure 17.) Determine the wind and temperature aloft forecast for DEN at 9,000 feet. 230° true at 21 knots, temperature -4 °C. When speaking to a flight service weather briefer, you should state. whether the flight is VFR or IFR. Refer to Figure 15.) The only cloud type forecast in TAF reports is. METAR Home. Plot. Data. Board. Info. IDs: Format: Raw Decoded Include TAF. Data at: 1007 UTC 11 Oct 2023. Region: TOP. KATL 110952Z 00000KT 10SM BKN200 BKN250 18/13 A2991 RMK AO2 SLP121 T01780133 $.TAF; KDPA 30nm N : 081720Z 0818/0918 ... KMDW 37nm NE : 090300Z 0903/1006 30006KT P6SM SCT080 FM091600 30012G18KT P6SM FEW050 FEW250 FM092300 28006KT P6SM FEW250 NOTAMs; Click for the latest NOTAMs: NOTAMs are issued by the DoD/FAA and will open in a separate window not controlled by AirNav.Include TAF. Show METAR board. IDs: Search METAR Sites. ADDS Station Table. NCEI METAR Archive. Vietor Weather 2023 to obtain more information about this web site. Server: devoweb ...Weather radar, wind and waves forecast for kiters, surfers, paragliders, pilots, sailors and anyone else. Worldwide animated weather map, with easy to use layers and precise spot forecast. METAR, TAF and NOTAMs for any airport in the World. SYNOP codes from weather stations and buoys. Forecast models ECMWF, GFS, NAM and NEMSOct 12, 2023 · TAF KADW 120900Z 1209/1315 VRB03KT 9999 SCT100 SCT250 QNH2988INS : Forecast period: 0900 to 1800 UTC 12 October 2023 Forecast type: FROM: standard forecast or significant change Winds: variable direction winds at 3 MPH (3 knots; 1.5 m/s) Visibility: 6 or more miles (10+ km) Ceiling: at least 12,000 feet AGL Clouds: kmdw 011453z 32017g30kt 10sm bkn026 bkn033 ovc039 06/01 a2939 rmk ao2 pk wnd 31030/1444 slp956 60000 t00610011 55001 kmdw 011459z 0115/0218 31019g32kt 5sm -radz br ovc012 tempo 0117/0121 4sm radz br bkn008 …METAR KMDW 310653Z 30004KT 10SM BKN250 M01/M03 A2994 RMK AO2 SLP150 T10111033 : December 30, 2022: Time Code Weather Temp. Visibility Ceiling Wind METAR/SPECI; 23:53TAF Message type : TAF-routine or TAF AMD-amended forecast, METAR-hourly, SPECI-special or TESTM-non-commissioned ASOS report METAR KPIT ICAO location indicator KPIT 091730Z Issuance time: ALL times in UTC “Z”, 2-digit date, 4-digit time 091955Z 091818 Valid period: 2-digit date, 2-digit beginning, 2-digit ending timesMETAR/TAF Quiz METAR TAF. EN. ... SPECI KMDW 121856Z 32005KT 1 1/2SM RA OVC007 7/16 A2980 RMK RAB35.<br /> (This special report at Chicago Midway [KMDW] tells us the weather is getting worse,<br /> with the remarks indicating the rain began at 35 past the hour or 1835Z.In the METAR you will also find the air pressure at the mean sea level (QNH). This is calculated by recalculating the air pressure at terrain height (QFE) back to sea level. Air pressure can be expressed in inches of mercury (preceded by an A) or hectopascals (preceded by a Q). A2994 means air pressure of 29.94 inHg.FAA Part 107 Drone Pilot Test. The FAA gives you 120 minutes to take 60 test questions. You should answer these 10 questions within 20 minutes. The passing grade is 70% or better. Good luck! Your Test Time Remaining is: 19:56 minutes. 1.Oct 11, 2023 · TAF KADW 250100Z 2501/2607 16006KT 9999 -SHRA SCT050 BKN150 QNH2988INS. Forecast period: 0100 to 0200 UTC 25 August 2023. Forecast type: FROM: standard forecast or significant change. Winds: from the SSE (160 degrees) at 7 MPH (6 knots; 3.1 m/s) Visibility: 6 or more sm (10+ km) METAR Chicago Midway International Airport - KMDW/MDW. Chicago Midway International Airport is a large airport in Illinois, United States. The airport is located at latitude 41.78594 and longitude -87.75253. The airport has 5 runways: 13C/31C, 4R/22L, 4L/22R, 13L/31R and 13R/31L.1 day ago · METAR KMSP 132353Z 06014G31KT 10SM -RA OVC015 09/07 A2991 RMK AO2 PK WND 05031/2349 SLP133 P0001 60057 T00940072 10094 20089 53018. Current weather is light rain.The wind is from direction 060° with a speed of 14 kt. Visibility is 10 mi. The ceiling, broken or more, is 1,500 ft. The temperature is 9 °C, with a wind chill of 4 °C. KMDW - Chicago/Midway Intl, IL, US. Issued at 2321 UTC 10 Oct 2023. Updated at 2349 UTC 10 Oct 2023. Potential Impact. None. Slight. Moderate. High. NOTE: LAMP data beyond the time of the TAF data is denoted as LAMP in Type and colored magenta. Raw TAF. KMDW 102321Z 1100/1206 25006KT P6SM SCT080. FM111800 23008KT P6SM VCSH SCT050 BKN100.KMDW - Chicago/Midway Intl, IL, US. Issued at 0540 UTC 18 Sep 2023. Updated at 0812 UTC 18 Sep 2023. NOTE: LAMP data beyond the time of the TAF data is denoted as LAMP in Type and colored magenta. Raw TAF. KMDW 180540Z 1806/1912 34005KT P6SM SCT050. FM182000 11006KT P6SM SCT060. Raw METAR.126.05 MHz. Chicago Approach. Ground. 121.65 MHz. Midway Ground. Warning: Do not use this data for real-world aviation or navigation. No guarantee of current accuracy is given. Airport information for Chicago Midway Intl (KMDW) in , including runways, map, navaids, weather (METAR/TAF) and ATC frequencies. For flight simulation use only.determine magnetic heading for flight from Mercer County (3) to Minot (1). wind from 330 deg at 25 kts, TAS 100 kts, magnetic variation 10 deg east. 352 degrees. determine magnetic heading for flight from Sandpoint (1) to St. Maries (4). wind from 215 deg at 25 kts, TAS 125 kts. 169 degrees. Study ch 7-9 flashcards. Sep 27, 2023 · TAF ; NOTAM ; History ; Airport ; Statistics ... KMDW B) 2309261157 E) MDW RWY 13C/31C CLSD CANCELED September 26, 2023 06:57 - September 29, 2023 06:57 LT ... METAR KMDW 121856Z AUTO 32005KT 1 1/2SM +RABR OVC007 17/16 A2980 5,180 pies. 5,800 pies. 5,880 pies. ¿Cuál es el pronóstico de turbulencia en el siguiente TAF?TAF KADW 120900Z 1209/1315 VRB03KT 9999 SCT100 SCT250 QNH2988INS : Forecast period: 0900 to 1800 UTC 12 October 2023 Forecast type: FROM: standard forecast or significant change Winds: variable direction winds at 3 MPH (3 knots; 1.5 m/s) Visibility: 6 or more miles (10 ...METAR KMLI 152055Z 25006KT 1/2SM SN FZFG BKN008 OVC014 M05/M06 A2957 RMK A02 PRESFR SLP023 P0000 60000 T10501056 53017 · METAR KMDW 152045Z 23009KT 7/8SM -SN ...METAR KMDW 091353Z 33006KT 10SM FEW040 SCT075 09/M01 A2985 RMK AO2 SLP109 T00941006 ... TAF KMDW. Raw Text. KMDW 091120Z 0912/1018 32006KT P6SM SCT080 FM091600 ...METAR Los Angeles International Airport - KLAX/LAX. Los Angeles International Airport is a large airport in California, United States. The airport is located at latitude 33.94312 and longitude -118.40880. The airport has 4 runways: 7L/25R, 6R/24L, 6L/24R and 7R/25L. The ICAO airport code of this field is KLAX.NOTE: LAMP data beyond the time of the TAF data is denoted as LAMP in Type and colored magenta. Raw TAF. KMDW 292057Z 2921/3024 13007KT P6SM FEW030. Raw METAR. KMDW 292053Z 13006KT 10SM BKN030 23/16 A3011 RMK AO2 SLP190 T02330161 58004. KMDW 291953Z 10004KT 10SM FEW030 23/15 A3011 RMK AO2 SLP189 T02330150.METAR text: KCLE 130751Z 00000KT 10SM BKN140 11/08 A3001 RMK AO2 SLP178 T01060078: Conditions at: KCLE (CLEVELAND , OH, US) observed 0751 UTC 13 October 2023The remarks section for KMDW has RAB35 listed. This entry means Answer. 14.3 Pilot Weather Report (PIREP) ... Example TAF. The elements of a TAF are listed below: Type of report TAF is a routine forecast. TAF AMD is an amended forecast. ICAO station identifier; Date and time the forecast is actually prepared;Oct 12, 2023 · TAF KADW 120900Z 1209/1315 VRB03KT 9999 SCT100 SCT250 QNH2988INS : Forecast period: 0900 to 1800 UTC 12 October 2023 Forecast type: FROM: standard forecast or significant change Winds: variable direction winds at 3 MPH (3 knots; 1.5 m/s) Visibility: 6 or more miles (10+ km) Ceiling: at least 12,000 feet AGL Clouds: TAF for: KATL (Atlanta/Hartsfield I, GA, US) issued at 2157 UTC 12 Oct 2023: Text: KATL 122157Z 1222/1324 05015KT P6SM BKN022 OVC030 : Forecast period: 2200 UTC 12 October 2023 to 0000 UTC 13 October 2023: Forecast type: FROM: standard forecast or significant change: Winds: from the NE (50 degrees) at 17 MPH (15 knots; 7.7 …Airport information for Chicago Midway Intl (KMDW) in , including runways, map, navaids, weather (METAR/TAF) and ATC frequencies. For flight simulation use only.14.5 Terminal Aerodrome Forecast (TAF) Terminal aerodrome forecasts (TAFs) are weather forecasts for selected airports with operating control towers around the country. Cumulonimbus clouds (CB) are the only cloud type forecast in TAFs as these are storm clouds and could greatly effect flight planning to that airport.data at: 2236 utc 18 dec 2022. kmdw 182153z 26012g20kt 10sm few020 m07/m12 a3020 rmk ao2 slp246 t10671122 $ kmdw 182053z 25013kt 10sm few022 m06/m12 a3018 rmk ao2 slp236 t10611117 53013 $ kmdw 181953z 25013kt 10sm few022 m07/m12 a3015 rmk ao2 slp228 t10671122 $ kmdw 181853z 25015g20kt 10sm few020 few095 m07/m12 a3014 …KMDW - Chicago/Midway Intl, IL, US Issued at 1120 UTC 11 Oct 2023 Updated at 1129 UTC 11 Oct 2023 Potential Impact None Slight Moderate High NOTE: LAMP data beyond the time of the TAF data is denoted as LAMP in Type and colored magenta. Raw TAF KMDW 111120Z 1112/1218 23005KT P6SM SCT100 FM112200 13006KT 6SM -SHRA SCT030 BKN050AVIATION WEATHER CENTER SCN23-79: Upgrade of Aviation Weather Center Website METAR Data METAR Home Plot Data Board Info IDs: Format: Raw Decoded Include TAF Data at: 0455 UTC 09 Oct 2023 Page loaded: 04:55 UTC | 09:55 PM Pacific | 10:55 PM Mountain | 11:55 PM Central | 12:55 AM Easternkmdw 091253z 32005kt 10sm few030 few080 07/00 a2984 rmk ao2 slp109 t00720000 kmdw 091120z 0912/1018 32006kt p6sm sct080 fm091600 30011g17kt p6sm few050 few250 fm092300 28006kt p6sm sct200 fm101600 29012g18kt p6sm few050 few250 kmsp 091253z 32006kt 10sm few200 03/01 a2998 rmk ao2 slp156 t00330011 FAA Part 107 Drone Pilot Test. The FAA gives you 120 minutes to take 60 test questions. You should answer these 10 questions within 20 minutes. The passing grade is 70% or better. Good luck! Your Test Time Remaining is: 19:56 minutes. 1.IDs: Format: Raw Decoded Include TAF. Data at: 0954 UTC 06 Oct 2023. KCDW 060911Z AUTO 10004KT 2 1/2SM BR OVC004 19/18 A3006 RMK AO2 T01940178. KCDW 060853Z AUTO 10004KT 1 1/4SM BR OVC002 19/18 A3005 RMK AO2 SLP181 60002 T01940178 56015. KCDW 060809Z AUTO 00000KT 1 3/4SM BR OVC003 19/18 A3007 RMK AO2 T01890178. kmdw 231253z 12007kt 10sm bkn120 19/13 a3011 rmk ao2 slp190 t01890128 $ kmdw 231121z 2312/2418 11008kt p6sm sct100 bkn250 kmdw 231121z 2312/2418 11008kt p6sm sct100 bkn250 KSTL 231251Z 11004KT 10SM FEW010 21/17 A3004 RMK AO2 SLP161 FU FEW010 T02060172 KSTL 231120Z 2312/2418 14008KT P6SM FEW090 FEW250 KSTL …Oct 5, 2023 · taf; kmdw 19nm ne : 100255z 1003/1106 28007kt p6sm sct060 bkn100 fm101600 28012g20kt p6sm bkn060 fm102300 33006kt p6sm sct060 kdpa 20nm n : Weather Forecasts and Reports. (refer to figure 17) what wind is forecast for STL at 9,000 feet? When you look at the line for STL is reporting 2332 + 02 at 9,000'. Winds from 230 degrees (first two digits). at 32 knots (second two digits), with a temperature of 2 degrees Celsius (last 2 digits)Weather: no significant weather observed at this time. METAR text: KBUR 011853Z 15010G23KT 10SM CLR 18/08 A2990 RMK AO2 SLP117 T01830078. Conditions at: KBUR (BURBANK , CA, US) observed 1853 UTC 01 October 2023. Temperature: 18.3°C (65°F) Dewpoint:. KMIA. MIA DEP INFO Q 0553Z. 33004KT 10SM FEW023 BKN110 26/21 AMETAR Chicago Midway International Airport - KM TAF; KDPA 30nm N : 081720Z 0818/0918 ... KMDW 37nm NE : 090300Z 0903/1006 30006KT P6SM SCT080 FM091600 30012G18KT P6SM FEW050 FEW250 FM092300 28006KT P6SM FEW250 NOTAMs; Click for the latest NOTAMs: NOTAMs are issued by the DoD/FAA and will open in a separate window not controlled by AirNav. 1 day ago · METAR KMSP 132353Z 06014G31KT 10SM -RA OVC BURLINGTON FLIGHT SERVICE STATION. NOTAMs facility: CEF (NOTAM-D service available) Attendance: SAT-SUN 0900-1700, ALL MON-FRI 0800-2300. Pattern altitude: RECTANGULAR TFC PAT: 1000 FT AGL LGT ACFT, 2000 FT AGL LRG/HVY ACFT; OVHD: 2500 FT AGL. Wind indicator: yes.TAF for: KMDW (Chicago/Midway Intl, IL, US) issued at 0853 UTC 11 Oct 2023: Text: KMDW 110853Z 1109/1212 24005KT P6SM FEW100 : Forecast period: 0900 to 1900 UTC 11 October 2023: Forecast type: FROM: standard forecast or significant change: Winds: from the WSW (240 degrees) at 6 MPH (5 knots; 2.6 m/s) Visibility: 6 or more sm (10+ km) Ceiling: METAR Charlotte/Douglas International Airport -...

Continue Reading